sensor_id;sensor_type;location;lat;lon;timestamp;pressure;altitude;pressure_sealevel;temperature;humidity
42247;BME280;27913;42.722;23.268;2023-08-31T17:55:31;94843.56;;;19.14;73.90
42247;BME280;27913;42.722;23.268;2023-08-31T17:57:57;94822.78;;;19.16;72.95
42247;BME280;27913;42.722;23.268;2023-08-31T18:00:23;94824.91;;;19.37;71.80
42247;BME280;27913;42.722;23.268;2023-08-31T18:02:48;94866.72;;;19.76;70.34
42247;BME280;27913;42.722;23.268;2023-08-31T18:05:19;94959.66;;;20.51;70.10
42247;BME280;27913;42.722;23.268;2023-08-31T18:07:48;94796.44;;;19.65;69.72
42247;BME280;27913;42.722;23.268;2023-08-31T18:10:14;94966.13;;;20.83;69.40
42247;BME280;27913;42.722;23.268;2023-08-31T18:12:49;94939.47;;;20.61;69.36
42247;BME280;27913;42.722;23.268;2023-08-31T18:15:15;94978.41;;;20.84;69.99
42247;BME280;27913;42.722;23.268;2023-08-31T18:17:41;94970.91;;;20.81;70.23
42247;BME280;27913;42.722;23.268;2023-08-31T18:20:07;94977.56;;;20.79;69.25
42247;BME280;27913;42.722;23.268;2023-08-31T18:22:33;94973.38;;;20.88;68.43
42247;BME280;27913;42.722;23.268;2023-08-31T18:24:58;94983.13;;;20.99;68.00
42247;BME280;27913;42.722;23.268;2023-08-31T18:27:24;94955.47;;;20.88;67.67
42247;BME280;27913;42.722;23.268;2023-08-31T18:29:49;94890.94;;;20.42;67.00
42247;BME280;27913;42.722;23.268;2023-08-31T18:32:15;94933.09;;;20.67;67.18
42247;BME280;27913;42.722;23.268;2023-08-31T18:34:42;94974.00;;;20.95;67.20
42247;BME280;27913;42.722;23.268;2023-08-31T18:37:09;94826.25;;;20.07;66.67
42247;BME280;27913;42.722;23.268;2023-08-31T18:39:34;94952.00;;;20.88;67.22
42247;BME280;27913;42.722;23.268;2023-08-31T18:42:00;94865.25;;;20.35;68.28
42247;BME280;27913;42.722;23.268;2023-08-31T18:44:27;94915.53;;;20.71;68.46
42247;BME280;27913;42.722;23.268;2023-08-31T18:46:53;94991.81;;;21.17;68.93
42247;BME280;27913;42.722;23.268;2023-08-31T18:49:18;94991.81;;;21.17;68.42
42247;BME280;27913;42.722;23.268;2023-08-31T18:51:44;94997.69;;;21.14;68.43
42247;BME280;27913;42.722;23.268;2023-08-31T18:54:10;94982.63;;;21.03;68.48
42247;BME280;27913;42.722;23.268;2023-08-31T18:56:36;94969.41;;;20.91;68.31
42247;BME280;27913;42.722;23.268;2023-08-31T18:59:02;95005.31;;;21.00;68.54
42247;BME280;27913;42.722;23.268;2023-08-31T19:01:28;94911.00;;;20.44;68.96
42247;BME280;27913;42.722;23.268;2023-08-31T19:03:54;94941.84;;;20.57;68.79
42247;BME280;27913;42.722;23.268;2023-08-31T19:06:24;94930.28;;;20.51;69.03
42247;BME280;27913;42.722;23.268;2023-08-31T19:08:52;94941.03;;;20.57;69.34
42247;BME280;27913;42.722;23.268;2023-08-31T19:11:18;94967.31;;;20.70;69.32
42247;BME280;27913;42.722;23.268;2023-08-31T19:13:43;95003.41;;;20.95;69.05
42247;BME280;27913;42.722;23.268;2023-08-31T19:16:12;94873.25;;;20.08;68.82
42247;BME280;27913;42.722;23.268;2023-08-31T19:18:37;94978.94;;;20.81;69.35
42247;BME280;27913;42.722;23.268;2023-08-31T19:21:05;95011.47;;;21.00;69.34
42247;BME280;27913;42.722;23.268;2023-08-31T19:23:31;94959.00;;;20.67;69.46
42247;BME280;27913;42.722;23.268;2023-08-31T19:26:06;94930.00;;;20.48;69.86
42247;BME280;27913;42.722;23.268;2023-08-31T19:28:35;94979.75;;;20.82;69.63
42247;BME280;27913;42.722;23.268;2023-08-31T19:31:00;94936.75;;;20.56;69.82
42247;BME280;27913;42.722;23.268;2023-08-31T19:33:26;94870.25;;;20.04;70.32
42247;BME280;27913;42.722;23.268;2023-08-31T19:35:52;94970.47;;;20.62;71.23
42247;BME280;27913;42.722;23.268;2023-08-31T19:38:19;95008.56;;;20.80;71.58
42247;BME280;27913;42.722;23.268;2023-08-31T19:40:45;94952.66;;;20.45;71.66
42247;BME280;27913;42.722;23.268;2023-08-31T19:43:11;94997.78;;;20.69;71.97
42247;BME280;27913;42.722;23.268;2023-08-31T19:45:38;94913.66;;;20.17;71.38
42247;BME280;27913;42.722;23.268;2023-08-31T19:48:04;94888.38;;;20.02;71.42
42247;BME280;27913;42.722;23.268;2023-08-31T19:50:30;94882.09;;;19.91;71.45
42247;BME280;27913;42.722;23.268;2023-08-31T19:52:55;95008.38;;;20.59;71.43
42247;BME280;27913;42.722;23.268;2023-08-31T19:55:21;95039.72;;;20.69;72.49
42247;BME280;27913;42.722;23.268;2023-08-31T19:57:49;95051.47;;;20.68;71.93
42247;BME280;27913;42.722;23.268;2023-08-31T20:00:15;94995.88;;;19.97;73.62
42247;BME280;27913;42.722;23.268;2023-08-31T20:02:43;95048.34;;;20.09;74.29
42247;BME280;27913;42.722;23.268;2023-08-31T20:05:09;94942.41;;;19.13;74.86
42247;BME280;27913;42.722;23.268;2023-08-31T20:07:35;94889.63;;;18.80;75.23
42247;BME280;27913;42.722;23.268;2023-08-31T20:10:00;94947.56;;;19.19;75.10
42247;BME280;27913;42.722;23.268;2023-08-31T20:12:26;94893.84;;;18.93;75.16
42247;BME280;27913;42.722;23.268;2023-08-31T20:14:52;95057.91;;;20.05;75.05
42247;BME280;27913;42.722;23.268;2023-08-31T20:17:18;95053.94;;;20.07;74.42
42247;BME280;27913;42.722;23.268;2023-08-31T20:19:43;94986.94;;;19.69;74.48
42247;BME280;27913;42.722;23.268;2023-08-31T20:22:09;95059.16;;;20.19;73.77
42247;BME280;27913;42.722;23.268;2023-08-31T20:24:35;94961.81;;;19.65;72.83
42247;BME280;27913;42.722;23.268;2023-08-31T20:27:00;95061.47;;;20.33;72.21
42247;BME280;27913;42.722;23.268;2023-08-31T20:29:28;95066.81;;;20.33;72.36
42247;BME280;27913;42.722;23.268;2023-08-31T20:31:54;95066.31;;;20.36;70.88
42247;BME280;27913;42.722;23.268;2023-08-31T20:34:21;95031.66;;;20.19;70.00
42247;BME280;27913;42.722;23.268;2023-08-31T20:36:47;94916.44;;;19.42;70.09
42247;BME280;27913;42.722;23.268;2023-08-31T20:39:13;95001.75;;;19.99;70.24
42247;BME280;27913;42.722;23.268;2023-08-31T20:41:39;95046.00;;;20.35;69.91
42247;BME280;27913;42.722;23.268;2023-08-31T20:44:05;94993.44;;;19.96;69.83
42247;BME280;27913;42.722;23.268;2023-08-31T20:46:37;95041.03;;;20.21;71.48
42247;BME280;27913;42.722;23.268;2023-08-31T20:49:03;95035.88;;;20.14;71.48
42247;BME280;27913;42.722;23.268;2023-08-31T20:51:32;95006.72;;;19.90;71.45
42247;BME280;27913;42.722;23.268;2023-08-31T20:54:02;95023.69;;;19.84;72.36
42247;BME280;27913;42.722;23.268;2023-08-31T20:56:28;95082.22;;;19.91;72.68
42247;BME280;27913;42.722;23.268;2023-08-31T20:58:57;94926.06;;;18.75;73.21
42247;BME280;27913;42.722;23.268;2023-08-31T21:01:22;95089.75;;;19.77;73.34
42247;BME280;27913;42.722;23.268;2023-08-31T21:03:58;95053.41;;;19.53;73.55
42247;BME280;27913;42.722;23.268;2023-08-31T21:06:25;95094.34;;;19.64;73.64
42247;BME280;27913;42.722;23.268;2023-08-31T21:08:51;95093.22;;;19.43;74.10
42247;BME280;27913;42.722;23.268;2023-08-31T21:11:22;95067.44;;;19.02;75.28
42247;BME280;27913;42.722;23.268;2023-08-31T21:13:48;95034.41;;;18.57;75.81
42247;BME280;27913;42.722;23.268;2023-08-31T21:16:15;95116.59;;;18.94;76.36
42247;BME280;27913;42.722;23.268;2023-08-31T21:18:40;95067.97;;;18.58;76.69
42247;BME280;27913;42.722;23.268;2023-08-31T21:21:07;95124.03;;;18.80;76.65
42247;BME280;27913;42.722;23.268;2023-08-31T21:23:32;95074.56;;;18.43;76.41
42247;BME280;27913;42.722;23.268;2023-08-31T21:26:00;95099.31;;;18.56;77.00
42247;BME280;27913;42.722;23.268;2023-08-31T21:28:26;95122.06;;;18.88;76.61
42247;BME280;27913;42.722;23.268;2023-08-31T21:30:52;95067.72;;;18.59;76.51
42247;BME280;27913;42.722;23.268;2023-08-31T21:33:17;95133.16;;;18.97;75.77
42247;BME280;27913;42.722;23.268;2023-08-31T21:35:43;94956.56;;;17.84;74.64
42247;BME280;27913;42.722;23.268;2023-08-31T21:38:10;95068.78;;;18.58;73.69
42247;BME280;27913;42.722;23.268;2023-08-31T21:40:41;95134.53;;;18.99;73.54
42247;BME280;27913;42.722;23.268;2023-08-31T21:43:07;95097.53;;;18.74;72.80
42247;BME280;27913;42.722;23.268;2023-08-31T21:45:34;95076.19;;;18.56;73.06
42247;BME280;27913;42.722;23.268;2023-08-31T21:48:01;95110.91;;;18.62;73.55
42247;BME280;27913;42.722;23.268;2023-08-31T21:50:28;95098.06;;;18.58;73.87
42247;BME280;27913;42.722;23.268;2023-08-31T21:53:04;95145.78;;;18.89;74.02
42247;BME280;27913;42.722;23.268;2023-08-31T21:55:31;95126.72;;;18.80;74.53
42247;BME280;27913;42.722;23.268;2023-08-31T21:57:56;95120.97;;;18.59;74.87
42247;BME280;27913;42.722;23.268;2023-08-31T22:00:22;95116.63;;;18.41;75.73
42247;BME280;27913;42.722;23.268;2023-08-31T22:02:49;95164.66;;;18.46;77.31
42247;BME280;27913;42.722;23.268;2023-08-31T22:05:25;95051.72;;;17.70;77.85
42247;BME280;27913;42.722;23.268;2023-08-31T22:07:52;95077.13;;;17.54;79.07
42247;BME280;27913;42.722;23.268;2023-08-31T22:10:19;95100.38;;;17.59;79.57
42247;BME280;27913;42.722;23.268;2023-08-31T22:12:45;95133.59;;;17.80;79.51
42247;BME280;27913;42.722;23.268;2023-08-31T22:15:22;95109.53;;;17.75;79.63
42247;BME280;27913;42.722;23.268;2023-08-31T22:17:50;95042.34;;;17.44;79.00
42247;BME280;27913;42.722;23.268;2023-08-31T22:20:16;95077.97;;;17.79;78.50
42247;BME280;27913;42.722;23.268;2023-08-31T22:22:50;95157.47;;;18.35;78.46
42247;BME280;27913;42.722;23.268;2023-08-31T22:25:20;95160.84;;;18.30;78.20
42247;BME280;27913;42.722;23.268;2023-08-31T22:27:46;95039.34;;;17.64;77.65
42247;BME280;27913;42.722;23.268;2023-08-31T22:30:12;95058.22;;;17.86;76.90
42247;BME280;27913;42.722;23.268;2023-08-31T22:32:40;95172.97;;;18.62;76.21
42247;BME280;27913;42.722;23.268;2023-08-31T22:35:06;95110.28;;;18.30;76.23
42247;BME280;27913;42.722;23.268;2023-08-31T22:37:33;95163.72;;;18.53;76.65
42247;BME280;27913;42.722;23.268;2023-08-31T22:39:59;95160.13;;;18.35;77.18
42247;BME280;27913;42.722;23.268;2023-08-31T22:42:24;95097.63;;;17.78;77.74
42247;BME280;27913;42.722;23.268;2023-08-31T22:44:50;95131.63;;;17.99;77.79
42247;BME280;27913;42.722;23.268;2023-08-31T22:47:16;95136.84;;;17.94;78.03
42247;BME280;27913;42.722;23.268;2023-08-31T22:49:41;95172.75;;;18.16;78.12
42247;BME280;27913;42.722;23.268;2023-08-31T22:52:08;95140.66;;;17.98;77.72
42247;BME280;27913;42.722;23.268;2023-08-31T22:54:34;95183.84;;;18.37;77.81
42247;BME280;27913;42.722;23.268;2023-08-31T22:57:00;95146.25;;;18.21;77.32
42247;BME280;27913;42.722;23.268;2023-08-31T22:59:26;95113.81;;;18.12;77.26
42247;BME280;27913;42.722;23.268;2023-08-31T23:01:51;95093.94;;;18.03;77.03
42247;BME280;27913;42.722;23.268;2023-08-31T23:04:17;95051.03;;;17.75;76.90
42247;BME280;27913;42.722;23.268;2023-08-31T23:06:42;95148.47;;;18.36;76.99
42247;BME280;27913;42.722;23.268;2023-08-31T23:09:08;95150.88;;;18.38;76.77
42247;BME280;27913;42.722;23.268;2023-08-31T23:11:35;95190.69;;;18.56;76.57
42247;BME280;27913;42.722;23.268;2023-08-31T23:14:01;95194.63;;;18.42;76.76
42247;BME280;27913;42.722;23.268;2023-08-31T23:16:26;95195.09;;;18.39;76.78
42247;BME280;27913;42.722;23.268;2023-08-31T23:18:52;95197.28;;;18.42;76.49
42247;BME280;27913;42.722;23.268;2023-08-31T23:21:18;95195.78;;;18.34;76.67
42247;BME280;27913;42.722;23.268;2023-08-31T23:23:44;95206.59;;;18.08;77.58
42247;BME280;27913;42.722;23.268;2023-08-31T23:26:09;95134.75;;;17.60;77.94
42247;BME280;27913;42.722;23.268;2023-08-31T23:28:35;95153.13;;;17.74;78.20
42247;BME280;27913;42.722;23.268;2023-08-31T23:31:01;95140.72;;;17.68;77.95
42247;BME280;27913;42.722;23.268;2023-08-31T23:33:26;95069.59;;;17.27;77.32
42247;BME280;27913;42.722;23.268;2023-08-31T23:35:52;95214.19;;;18.23;77.62
42247;BME280;27913;42.722;23.268;2023-08-31T23:38:18;95116.59;;;17.69;77.18
42247;BME280;27913;42.722;23.268;2023-08-31T23:40:43;95212.44;;;18.29;77.07
42247;BME280;27913;42.722;23.268;2023-08-31T23:43:09;95213.13;;;18.37;77.21
42247;BME280;27913;42.722;23.268;2023-08-31T23:45:34;95174.16;;;18.18;76.68
42247;BME280;27913;42.722;23.268;2023-08-31T23:48:00;95208.75;;;18.42;76.22
42247;BME280;27913;42.722;23.268;2023-08-31T23:50:26;95172.75;;;18.16;76.53
42247;BME280;27913;42.722;23.268;2023-08-31T23:52:52;95206.56;;;18.39;76.68
42247;BME280;27913;42.722;23.268;2023-08-31T23:55:18;95213.03;;;18.19;77.28
42247;BME280;27913;42.722;23.268;2023-08-31T23:57:44;95111.22;;;17.45;78.01
